createdAt,value
2018-06-05T00:00:57.794Z,38.50
2018-06-05T00:03:28.664Z,37.25
2018-06-05T00:06:29.506Z,37.25
2018-06-05T00:09:05.071Z,36.75
2018-06-05T00:11:36.690Z,35.00
2018-06-05T00:14:08.072Z,37.00
2018-06-05T00:16:42.677Z,37.50
2018-06-05T00:19:15.305Z,37.00
2018-06-05T00:21:47.112Z,39.25
2018-06-05T00:24:19.174Z,36.00
2018-06-05T00:27:05.648Z,32.75
2018-06-05T00:29:39.754Z,36.00
2018-06-05T00:32:11.971Z,36.75
2018-06-05T00:34:45.191Z,38.00
2018-06-05T00:37:22.198Z,37.75
2018-06-05T00:39:58.319Z,38.25
2018-06-05T00:42:37.974Z,37.50
2018-06-05T00:45:15.521Z,39.00
2018-06-05T00:47:51.899Z,37.75
2018-06-05T00:50:27.967Z,38.25
2018-06-05T00:53:01.368Z,41.00
2018-06-05T00:55:38.306Z,36.00
2018-06-05T00:58:11.053Z,38.00
2018-06-05T01:00:44.470Z,41.00
2018-06-05T01:03:16.230Z,40.25
2018-06-05T01:05:46.873Z,38.25
2018-06-05T01:08:20.845Z,41.00
2018-06-05T01:10:58.035Z,39.00
2018-06-05T01:13:32.339Z,42.25
2018-06-05T01:16:07.866Z,42.75
2018-06-05T01:18:39.409Z,40.25
2018-06-05T01:21:11.272Z,38.25
2018-06-05T01:23:48.708Z,41.25
2018-06-05T01:26:23.243Z,40.75
2018-06-05T01:28:54.312Z,41.75
2018-06-05T01:31:26.134Z,42.50
2018-06-05T01:33:58.573Z,41.00
2018-06-05T01:36:29.674Z,44.50
2018-06-05T01:39:00.646Z,41.00
2018-06-05T01:41:32.437Z,40.25
2018-06-05T01:44:03.220Z,43.75
2018-06-05T01:46:34.528Z,40.25
2018-06-05T01:49:06.346Z,43.25
2018-06-05T01:51:38.379Z,43.00
2018-06-05T01:54:32.380Z,41.75
2018-06-05T01:57:07.316Z,46.00
2018-06-05T01:59:39.561Z,42.75
2018-06-05T02:02:18.308Z,44.50
2018-06-05T02:04:51.510Z,42.75
2018-06-05T02:07:25.445Z,45.50
2018-06-05T02:09:56.428Z,43.75
2018-06-05T02:12:28.205Z,43.25
2018-06-05T02:15:23.942Z,45.25
2018-06-05T02:17:56.562Z,44.25
2018-06-05T02:20:27.349Z,44.50
2018-06-05T02:22:57.830Z,46.50
2018-06-05T02:25:29.064Z,45.25
2018-06-05T02:28:00.682Z,45.00
2018-06-05T02:30:32.157Z,47.75
2018-06-05T02:33:02.749Z,46.25
2018-06-05T02:35:37.318Z,43.00
2018-06-05T02:38:08.765Z,44.00
2018-06-05T02:40:45.893Z,46.00
2018-06-05T02:43:16.873Z,45.75
2018-06-05T02:45:48.136Z,46.00
2018-06-05T02:48:20.322Z,43.50
2018-06-05T02:50:51.591Z,47.75
2018-06-05T02:53:24.452Z,45.25
2018-06-05T02:55:57.625Z,48.00
2018-06-05T02:58:28.274Z,47.00
2018-06-05T03:01:00.066Z,45.00
2018-06-05T03:03:31.893Z,44.00
2018-06-05T03:06:02.676Z,45.25
2018-06-05T03:08:33.322Z,44.75
2018-06-05T03:11:04.299Z,45.50
2018-06-05T03:13:37.385Z,45.25
2018-06-05T03:16:11.729Z,45.50
2018-06-05T03:18:49.705Z,48.75
2018-06-05T03:21:35.253Z,46.50
2018-06-05T03:24:06.862Z,49.00
2018-06-05T03:26:39.064Z,45.50
2018-06-05T03:29:13.535Z,43.25
2018-06-05T03:31:44.511Z,46.75
2018-06-05T03:34:15.803Z,46.50
2018-06-05T03:36:48.480Z,47.00
2018-06-05T03:39:21.316Z,44.25
2018-06-05T03:41:53.146Z,44.00
2018-06-05T03:44:28.023Z,44.25
2018-06-05T03:46:59.123Z,46.75
2018-06-05T03:49:34.755Z,45.00
2018-06-05T03:52:05.856Z,43.25
2018-06-05T03:54:36.647Z,47.50
2018-06-05T03:57:08.676Z,44.25
2018-06-05T04:02:24.139Z,46.50
2018-06-05T04:04:54.786Z,48.25
2018-06-05T04:07:27.670Z,45.75
2018-06-05T04:10:02.149Z,44.75
2018-06-05T04:12:34.666Z,45.00
2018-06-05T04:17:55.555Z,45.75
2018-06-05T04:20:26.216Z,47.00
2018-06-05T04:22:56.882Z,48.75
2018-06-05T04:25:30.785Z,48.50
2018-06-05T04:28:04.136Z,49.50
2018-06-05T04:30:37.693Z,47.00
2018-06-05T04:33:10.235Z,48.25
2018-06-05T04:35:44.030Z,48.50
2018-06-05T04:38:15.177Z,45.25
2018-06-05T04:40:47.705Z,45.75
2018-06-05T04:43:21.656Z,44.25
2018-06-05T04:45:54.522Z,45.50
2018-06-05T04:48:29.641Z,45.50
2018-06-05T04:53:27.124Z,48.75
2018-06-05T04:56:02.413Z,44.00
2018-06-05T04:58:35.988Z,44.50
2018-06-05T05:01:08.097Z,46.75
2018-06-05T05:03:39.171Z,47.75
2018-06-05T05:08:40.723Z,45.25
2018-06-05T05:11:12.987Z,45.25
2018-06-05T05:13:44.656Z,44.00
2018-06-05T05:16:16.310Z,44.25
2018-06-05T05:18:47.965Z,46.50
2018-06-05T05:21:19.533Z,41.25
2018-06-05T05:23:52.288Z,43.50
2018-06-05T05:26:26.630Z,45.00
2018-06-05T05:28:58.293Z,42.75
2018-06-05T05:34:18.244Z,42.25
2018-06-05T05:36:59.058Z,44.75
2018-06-05T05:39:34.117Z,40.50
2018-06-05T05:42:21.041Z,41.25
2018-06-05T05:44:53.362Z,45.25
2018-06-05T05:47:29.463Z,44.25
2018-06-05T05:50:17.557Z,43.50
2018-06-05T05:52:56.683Z,41.00
2018-06-05T05:55:28.277Z,41.00
2018-06-05T05:58:02.259Z,42.75
2018-06-05T06:00:42.728Z,43.00
2018-06-05T06:03:20.995Z,41.25
2018-06-05T06:05:59.600Z,37.00
2018-06-05T06:08:34.826Z,41.75
2018-06-05T06:11:13.272Z,40.00
2018-06-05T06:13:51.751Z,41.00
2018-06-05T06:16:31.689Z,40.00
2018-06-05T06:19:05.246Z,44.50
2018-06-05T06:21:41.943Z,39.25
2018-06-05T06:24:25.471Z,39.75
2018-06-05T06:26:57.818Z,45.75
2018-06-05T06:29:30.419Z,42.00
2018-06-05T06:32:02.788Z,38.75
2018-06-05T06:37:31.687Z,40.00
2018-06-05T06:40:03.484Z,41.50
2018-06-05T06:42:34.147Z,41.50
2018-06-05T06:45:25.645Z,42.50
2018-06-05T06:47:58.917Z,40.75
2018-06-05T06:50:30.403Z,42.00
2018-06-05T06:53:05.398Z,37.50
2018-06-05T06:55:39.229Z,38.75
2018-06-05T06:58:09.837Z,39.75
2018-06-05T07:00:45.376Z,41.75
2018-06-05T07:03:17.041Z,41.00
2018-06-05T07:05:49.876Z,41.75
2018-06-05T07:08:23.977Z,44.75
2018-06-05T07:14:07.081Z,43.50
2018-06-05T07:16:39.819Z,47.25
2018-06-05T07:19:12.366Z,45.75
2018-06-05T07:21:51.411Z,43.50
2018-06-05T07:24:23.144Z,43.75
2018-06-05T07:26:55.216Z,46.75
2018-06-05T07:29:28.033Z,43.00
2018-06-05T07:32:01.791Z,48.75
2018-06-05T07:34:33.482Z,47.25
2018-06-05T07:37:04.670Z,48.00
2018-06-05T07:39:37.825Z,47.75
2018-06-05T07:42:10.792Z,49.00
2018-06-05T07:44:43.826Z,46.75
2018-06-05T07:47:22.500Z,48.75
2018-06-05T07:49:58.685Z,49.00
2018-06-05T07:52:38.106Z,49.00
2018-06-05T07:55:11.019Z,44.75
2018-06-05T07:57:41.513Z,46.25
2018-06-05T08:00:31.195Z,50.50
2018-06-05T08:03:03.676Z,48.50
2018-06-05T08:05:37.211Z,46.50
2018-06-05T08:08:09.500Z,48.50
2018-06-05T08:10:44.017Z,48.25
2018-06-05T08:13:15.400Z,46.75
2018-06-05T08:16:00.566Z,44.50
2018-06-05T08:18:32.242Z,45.25
2018-06-05T08:21:05.582Z,47.50
2018-06-05T08:23:45.040Z,50.50
2018-06-05T08:26:18.574Z,45.25
2018-06-05T08:28:52.786Z,46.75
2018-06-05T08:31:25.500Z,46.50
2018-06-05T08:34:05.089Z,46.75
2018-06-05T08:36:37.250Z,44.75
2018-06-05T08:39:09.133Z,47.25
2018-06-05T08:41:42.195Z,44.75
2018-06-05T08:44:12.812Z,44.00
2018-06-05T08:46:43.709Z,44.75
2018-06-05T08:49:17.923Z,44.50
2018-06-05T08:51:51.614Z,44.50
2018-06-05T08:54:29.777Z,45.00
2018-06-05T08:57:01.328Z,43.75
2018-06-05T08:59:33.270Z,42.00
2018-06-05T09:02:09.696Z,43.50
2018-06-05T09:04:41.334Z,44.00
2018-06-05T09:07:21.567Z,43.00
2018-06-05T09:09:57.401Z,40.50
2018-06-05T09:12:31.248Z,41.00
2018-06-05T09:15:08.340Z,43.25
2018-06-05T09:17:40.300Z,42.00
2018-06-05T09:20:12.753Z,43.50
2018-06-05T09:22:48.215Z,43.75
2018-06-05T09:25:24.638Z,41.75
2018-06-05T09:27:57.131Z,43.25
2018-06-05T09:30:29.504Z,42.50
2018-06-05T09:33:02.291Z,41.75
2018-06-05T09:35:33.840Z,44.25
2018-06-05T09:38:06.927Z,47.00
2018-06-05T09:40:39.956Z,44.00
2018-06-05T09:43:13.991Z,43.25
2018-06-05T09:45:47.034Z,40.75
2018-06-05T09:48:19.200Z,40.75
2018-06-05T09:50:53.184Z,42.00
2018-06-05T09:53:24.738Z,37.25
2018-06-05T09:55:57.913Z,43.75
2018-06-05T09:58:43.441Z,41.50
2018-06-05T10:01:17.190Z,41.50
2018-06-05T10:03:48.275Z,41.75
2018-06-05T10:06:22.639Z,44.25
2018-06-05T10:08:58.471Z,44.25
2018-06-05T10:11:30.399Z,45.50
2018-06-05T10:14:02.249Z,42.25
2018-06-05T10:19:22.989Z,45.00
2018-06-05T10:21:54.851Z,45.50
2018-06-05T10:27:08.790Z,41.25
2018-06-05T10:29:52.340Z,43.00
2018-06-05T10:32:36.328Z,43.25
2018-06-05T10:35:16.710Z,44.50
2018-06-05T10:40:42.967Z,44.75
2018-06-05T10:43:21.254Z,45.25
2018-06-05T10:45:58.630Z,44.75
2018-06-05T10:48:57.336Z,46.50
2018-06-05T10:51:39.411Z,47.00
2018-06-05T10:54:25.403Z,49.75
2018-06-05T10:57:02.451Z,44.75
2018-06-05T11:02:46.069Z,47.00
2018-06-05T11:05:21.832Z,47.25
2018-06-05T11:07:53.598Z,45.50
2018-06-05T11:10:25.894Z,43.00
2018-06-05T11:12:59.659Z,44.00
2018-06-05T11:15:50.442Z,45.75
2018-06-05T11:18:22.581Z,43.50
2018-06-05T11:20:56.787Z,47.00
2018-06-05T11:23:28.963Z,44.75
2018-06-05T11:26:00.994Z,44.50
2018-06-05T11:28:48.327Z,48.00
2018-06-05T11:31:26.351Z,45.25
2018-06-05T11:34:00.936Z,44.75
2018-06-05T11:36:39.646Z,44.00
2018-06-05T11:39:24.705Z,43.50
2018-06-05T11:41:58.038Z,41.00
2018-06-05T11:47:16.736Z,41.50
2018-06-05T11:50:10.984Z,44.00
2018-06-05T11:52:48.247Z,42.25
2018-06-05T11:55:29.442Z,45.25
2018-06-05T11:58:26.392Z,44.50
2018-06-05T12:01:07.179Z,40.25
2018-06-05T12:03:40.864Z,39.50
2018-06-05T12:06:16.744Z,38.00
2018-06-05T12:08:56.521Z,39.50
2018-06-05T12:11:34.076Z,37.75
2018-06-05T12:14:09.847Z,39.00
2018-06-05T12:16:48.344Z,40.25
2018-06-05T12:19:28.100Z,37.75
2018-06-05T12:22:00.422Z,40.00
2018-06-05T12:24:31.681Z,43.00
2018-06-05T12:27:14.151Z,43.00
2018-06-05T12:30:13.121Z,40.00
2018-06-05T12:32:58.463Z,39.50
2018-06-05T12:38:17.362Z,39.75
2018-06-05T12:40:54.384Z,39.25
2018-06-05T12:43:29.197Z,40.00
2018-06-05T12:46:02.109Z,38.25
2018-06-05T12:48:40.195Z,37.50
2018-06-05T12:51:27.517Z,37.00
2018-06-05T12:53:58.947Z,39.25
2018-06-05T12:56:37.636Z,38.25
2018-06-05T12:59:25.427Z,40.25
2018-06-05T13:01:59.722Z,41.25
2018-06-05T13:04:36.173Z,38.50
2018-06-05T13:07:12.010Z,39.00
2018-06-05T13:09:57.554Z,39.50
2018-06-05T13:12:33.855Z,37.75
2018-06-05T13:15:15.095Z,39.00
2018-06-05T13:17:52.603Z,37.00
2018-06-05T13:23:13.795Z,38.75
2018-06-05T13:25:52.344Z,38.00
2018-06-05T13:28:27.101Z,37.75
2018-06-05T13:31:00.302Z,37.00
2018-06-05T13:33:41.361Z,36.75
2018-06-05T13:36:14.832Z,37.50
2018-06-05T13:38:59.485Z,38.50
2018-06-05T13:41:32.615Z,39.25
2018-06-05T13:44:06.311Z,38.00
2018-06-05T13:46:41.655Z,39.50
2018-06-05T13:49:18.892Z,40.00
2018-06-05T13:52:07.022Z,38.50
2018-06-05T13:54:45.719Z,35.00
2018-06-05T13:57:24.046Z,36.00
2018-06-05T14:00:00.788Z,39.00
2018-06-05T14:02:48.274Z,38.50
2018-06-05T14:05:28.898Z,38.75
2018-06-05T14:08:06.427Z,37.75
2018-06-05T14:10:40.921Z,37.50
2018-06-05T14:13:25.446Z,37.75
2018-06-05T14:16:12.204Z,36.00
2018-06-05T14:18:51.454Z,38.00
2018-06-05T14:21:30.913Z,36.00
2018-06-05T14:24:46.130Z,39.00
2018-06-05T14:27:26.294Z,38.50
2018-06-05T14:30:06.598Z,38.25
2018-06-05T14:32:38.483Z,40.75
2018-06-05T14:35:09.599Z,38.25
2018-06-05T14:37:42.581Z,35.75
2018-06-05T14:40:16.534Z,37.00
2018-06-05T14:42:49.813Z,40.00
2018-06-05T14:45:21.666Z,37.25
2018-06-05T14:47:54.281Z,38.50
2018-06-05T14:50:35.792Z,40.25
2018-06-05T14:56:49.818Z,38.75
2018-06-05T14:59:27.398Z,39.25
2018-06-05T15:02:08.771Z,39.75
2018-06-05T15:04:55.302Z,40.00
2018-06-05T15:10:14.979Z,41.25
2018-06-05T15:12:51.201Z,41.00
2018-06-05T15:15:28.616Z,40.25
2018-06-05T15:18:07.330Z,39.50
2018-06-05T15:20:52.583Z,40.25
2018-06-05T15:23:26.985Z,40.00
2018-06-05T15:26:03.102Z,39.50
2018-06-05T15:28:36.033Z,41.50
2018-06-05T15:31:09.056Z,40.75
2018-06-05T15:33:40.486Z,39.50
2018-06-05T15:36:12.959Z,40.50
2018-06-05T15:38:46.393Z,39.25
2018-06-05T15:41:18.168Z,42.00
2018-06-05T15:43:57.278Z,41.75
2018-06-05T15:46:29.201Z,40.00
2018-06-05T15:49:05.526Z,40.75
2018-06-05T15:51:36.897Z,38.75
2018-06-05T15:54:17.872Z,39.25
2018-06-05T15:56:51.060Z,39.75
2018-06-05T15:59:22.545Z,39.75
2018-06-05T16:01:54.382Z,39.25
2018-06-05T16:04:25.740Z,38.75
2018-06-05T16:06:58.998Z,42.50
2018-06-05T16:09:30.692Z,39.75
2018-06-05T16:12:02.288Z,39.75
2018-06-05T16:14:39.091Z,37.75
2018-06-05T16:17:16.594Z,37.25
2018-06-05T16:19:51.161Z,38.75
2018-06-05T16:22:27.147Z,42.25
2018-06-05T16:25:01.776Z,39.50
2018-06-05T16:27:35.138Z,40.00
2018-06-05T16:30:09.254Z,38.25
2018-06-05T16:32:48.810Z,39.25
2018-06-05T16:35:22.973Z,38.00
2018-06-05T16:37:55.912Z,39.75
2018-06-05T16:40:26.774Z,40.75
2018-06-05T16:43:01.023Z,38.00
2018-06-05T16:45:38.648Z,39.75
2018-06-05T16:48:18.469Z,36.00
2018-06-05T16:53:51.693Z,35.25
2018-06-05T16:56:38.933Z,36.50
2018-06-05T16:59:27.352Z,36.25
2018-06-05T17:02:20.852Z,38.75
2018-06-05T17:05:02.444Z,37.75
2018-06-05T17:07:41.951Z,38.50
2018-06-05T17:10:34.266Z,36.75
2018-06-05T17:13:16.439Z,36.00
2018-06-05T17:15:49.573Z,37.00
2018-06-05T17:18:28.486Z,36.25
2018-06-05T17:21:06.876Z,36.25
2018-06-05T17:23:41.017Z,35.00
2018-06-05T17:26:25.731Z,37.00
2018-06-05T17:29:22.369Z,36.25
2018-06-05T17:32:02.798Z,35.00
2018-06-05T17:34:37.362Z,37.00
2018-06-05T17:37:14.184Z,35.25
2018-06-05T17:39:49.060Z,32.50
2018-06-05T17:42:31.762Z,36.00
2018-06-05T17:45:21.309Z,35.25
2018-06-05T17:48:00.845Z,33.00
2018-06-05T17:55:33.960Z,34.50
2018-06-05T17:58:14.718Z,35.25
2018-06-05T18:00:54.588Z,34.75
2018-06-05T18:03:29.926Z,33.25
2018-06-05T18:06:07.363Z,33.50
2018-06-05T18:08:43.479Z,33.50
2018-06-05T18:11:22.297Z,34.25
2018-06-05T18:13:56.532Z,34.00
2018-06-05T18:16:35.140Z,34.75
2018-06-05T18:19:10.624Z,33.25
2018-06-05T18:21:46.299Z,36.00
2018-06-05T18:24:23.001Z,34.00
2018-06-05T18:26:55.723Z,36.75
2018-06-05T18:29:32.600Z,37.50
2018-06-05T18:32:17.706Z,36.25
2018-06-05T18:34:58.485Z,37.00
2018-06-05T18:37:50.227Z,36.00
2018-06-05T18:40:30.579Z,35.50
2018-06-05T18:43:05.255Z,38.25
2018-06-05T18:45:50.310Z,35.50
2018-06-05T18:48:43.393Z,37.25
2018-06-05T18:51:16.421Z,37.00
2018-06-05T18:56:47.090Z,36.50
2018-06-05T18:59:19.185Z,34.25
2018-06-05T19:01:54.476Z,37.50
2018-06-05T19:04:30.437Z,39.00
2018-06-05T19:07:07.946Z,36.50
2018-06-05T19:09:41.982Z,38.75
2018-06-05T19:12:36.425Z,37.75
2018-06-05T19:15:22.698Z,40.50
2018-06-05T19:17:58.635Z,40.00
2018-06-05T19:20:35.023Z,40.00
2018-06-05T19:23:17.114Z,40.50
2018-06-05T19:25:56.009Z,39.00
2018-06-05T19:28:35.365Z,39.00
2018-06-05T19:33:56.564Z,41.25
2018-06-05T19:39:46.002Z,42.00
2018-06-05T19:42:21.593Z,40.00
2018-06-05T19:45:06.828Z,42.25
2018-06-05T19:52:50.508Z,41.75
2018-06-05T19:55:28.236Z,44.00
2018-06-05T19:58:12.533Z,39.75
2018-06-05T20:00:54.080Z,38.75
2018-06-05T20:03:32.971Z,38.25
2018-06-05T20:06:10.215Z,40.50
2018-06-05T20:08:46.762Z,40.00
2018-06-05T20:11:23.922Z,41.75
2018-06-05T20:14:07.446Z,41.75
2018-06-05T20:16:44.535Z,39.25
2018-06-05T20:19:23.954Z,40.50
2018-06-05T20:22:08.183Z,40.00
2018-06-05T20:25:00.867Z,40.00
2018-06-05T20:27:37.401Z,39.50
2018-06-05T20:32:58.643Z,37.00
2018-06-05T20:35:36.467Z,42.00
2018-06-05T20:38:09.632Z,42.75
2018-06-05T20:40:45.301Z,42.50
2018-06-05T20:43:19.227Z,40.00
2018-06-05T20:45:54.491Z,42.25
2018-06-05T20:48:30.095Z,40.50
2018-06-05T20:51:04.172Z,41.00
2018-06-05T20:54:11.272Z,39.75
2018-06-05T20:56:49.585Z,42.25
2018-06-05T20:59:22.813Z,41.50
2018-06-05T21:02:13.735Z,41.50
2018-06-05T21:04:49.241Z,40.75
2018-06-05T21:07:37.060Z,39.25
2018-06-05T21:10:09.853Z,44.75
2018-06-05T21:12:43.068Z,40.50
2018-06-05T21:15:29.141Z,42.75
2018-06-05T21:18:15.656Z,43.25
2018-06-05T21:20:57.073Z,42.75
2018-06-05T21:23:49.103Z,43.75
2018-06-05T21:26:24.287Z,44.00
2018-06-05T21:28:57.318Z,41.75
2018-06-05T21:31:36.460Z,43.00
2018-06-05T21:34:14.730Z,43.00
2018-06-05T21:36:59.556Z,46.00
2018-06-05T21:39:37.351Z,42.00
2018-06-05T21:42:11.458Z,43.50
2018-06-05T21:44:46.210Z,43.75
2018-06-05T21:47:21.744Z,45.75
2018-06-05T21:49:56.028Z,42.50
2018-06-05T21:52:28.219Z,44.00
2018-06-05T21:55:03.060Z,42.00
2018-06-05T21:57:41.282Z,43.75
2018-06-05T22:00:28.287Z,43.00
2018-06-05T22:05:41.925Z,44.75
2018-06-05T22:08:15.872Z,43.25
2018-06-05T22:10:51.107Z,45.00
2018-06-05T22:13:24.722Z,43.00
2018-06-05T22:16:05.711Z,43.00
2018-06-05T22:18:45.382Z,42.50
2018-06-05T22:21:22.031Z,44.25
2018-06-05T22:23:56.611Z,42.75
2018-06-05T22:29:58.125Z,43.00
2018-06-05T22:32:41.815Z,45.50
2018-06-05T22:35:18.680Z,43.25
2018-06-05T22:37:55.197Z,42.75
2018-06-05T22:40:34.409Z,44.00
2018-06-05T22:43:06.013Z,42.00
2018-06-05T22:45:46.363Z,44.75
2018-06-05T22:48:25.422Z,42.75
2018-06-05T22:50:57.459Z,43.75
2018-06-05T22:53:35.743Z,42.25
2018-06-05T22:56:08.856Z,43.25
2018-06-05T22:58:47.491Z,46.25
2018-06-05T23:01:22.603Z,42.50
2018-06-05T23:04:04.241Z,42.00
2018-06-05T23:06:40.251Z,43.50
2018-06-05T23:09:15.563Z,44.50
2018-06-05T23:11:50.234Z,42.75
2018-06-05T23:14:23.619Z,40.75
2018-06-05T23:17:09.657Z,47.00
2018-06-05T23:19:43.269Z,44.25
2018-06-05T23:22:14.359Z,43.25
2018-06-05T23:24:52.120Z,44.75
2018-06-05T23:27:25.547Z,47.00
2018-06-05T23:29:56.751Z,43.25
2018-06-05T23:32:40.050Z,44.75
2018-06-05T23:35:14.804Z,42.75
2018-06-05T23:37:52.414Z,42.50
2018-06-05T23:40:28.021Z,45.00
2018-06-05T23:42:59.355Z,44.75
2018-06-05T23:45:38.679Z,45.25
2018-06-05T23:48:09.479Z,45.00
2018-06-05T23:50:42.689Z,44.50
2018-06-05T23:53:14.719Z,44.50
2018-06-05T23:55:46.490Z,47.50
2018-06-05T23:58:17.132Z,44.00
